sensor_id;sensor_type;location;lat;lon;timestamp;P1;durP1;ratioP1;P2;durP2;ratioP2
28802;SDS011;15949;55.656;37.422;2023-01-28T00:02:47;19.70;;;13.15;;
28802;SDS011;15949;55.656;37.422;2023-01-28T00:07:54;25.05;;;13.80;;
28802;SDS011;15949;55.656;37.422;2023-01-28T00:13:00;23.25;;;13.70;;
28802;SDS011;15949;55.656;37.422;2023-01-28T00:18:05;18.80;;;13.40;;
28802;SDS011;15949;55.656;37.422;2023-01-28T00:23:11;15.07;;;11.20;;
28802;SDS011;15949;55.656;37.422;2023-01-28T00:28:16;14.25;;;9.27;;
28802;SDS011;15949;55.656;37.422;2023-01-28T00:33:22;16.48;;;11.30;;
28802;SDS011;15949;55.656;37.422;2023-01-28T00:38:28;12.90;;;10.45;;
28802;SDS011;15949;55.656;37.422;2023-01-28T00:43:34;15.98;;;9.98;;
28802;SDS011;15949;55.656;37.422;2023-01-28T00:48:40;13.23;;;10.40;;
28802;SDS011;15949;55.656;37.422;2023-01-28T00:53:48;17.53;;;10.00;;
28802;SDS011;15949;55.656;37.422;2023-01-28T00:58:54;16.20;;;10.75;;
28802;SDS011;15949;55.656;37.422;2023-01-28T01:04:00;16.83;;;11.32;;
28802;SDS011;15949;55.656;37.422;2023-01-28T01:09:09;16.75;;;11.95;;
28802;SDS011;15949;55.656;37.422;2023-01-28T01:14:16;21.80;;;12.85;;
28802;SDS011;15949;55.656;37.422;2023-01-28T01:19:21;17.90;;;12.52;;
28802;SDS011;15949;55.656;37.422;2023-01-28T01:24:27;19.98;;;13.25;;
28802;SDS011;15949;55.656;37.422;2023-01-28T01:29:37;21.17;;;14.65;;
28802;SDS011;15949;55.656;37.422;2023-01-28T01:34:43;21.50;;;15.40;;
28802;SDS011;15949;55.656;37.422;2023-01-28T01:39:49;21.45;;;15.00;;
28802;SDS011;15949;55.656;37.422;2023-01-28T01:55:38;28.30;;;18.25;;
28802;SDS011;15949;55.656;37.422;2023-01-28T02:05:53;22.98;;;16.13;;
28802;SDS011;15949;55.656;37.422;2023-01-28T02:11:00;25.58;;;15.73;;
28802;SDS011;15949;55.656;37.422;2023-01-28T02:16:08;21.98;;;14.98;;
28802;SDS011;15949;55.656;37.422;2023-01-28T02:26:25;22.27;;;16.50;;
28802;SDS011;15949;55.656;37.422;2023-01-28T02:37:04;22.23;;;15.80;;
28802;SDS011;15949;55.656;37.422;2023-01-28T02:47:27;35.55;;;19.08;;
28802;SDS011;15949;55.656;37.422;2023-01-28T03:04:46;26.35;;;18.42;;
28802;SDS011;15949;55.656;37.422;2023-01-28T03:09:54;28.73;;;18.60;;
28802;SDS011;15949;55.656;37.422;2023-01-28T03:20:47;23.80;;;16.42;;
28802;SDS011;15949;55.656;37.422;2023-01-28T03:26:17;24.20;;;16.60;;
28802;SDS011;15949;55.656;37.422;2023-01-28T03:31:45;25.95;;;18.48;;
28802;SDS011;15949;55.656;37.422;2023-01-28T03:37:10;24.35;;;16.00;;
28802;SDS011;15949;55.656;37.422;2023-01-28T03:42:18;27.50;;;18.53;;
28802;SDS011;15949;55.656;37.422;2023-01-28T03:47:25;30.70;;;19.38;;
28802;SDS011;15949;55.656;37.422;2023-01-28T03:52:32;29.08;;;20.10;;
28802;SDS011;15949;55.656;37.422;2023-01-28T03:57:38;28.77;;;18.10;;
28802;SDS011;15949;55.656;37.422;2023-01-28T04:02:44;29.73;;;20.67;;
28802;SDS011;15949;55.656;37.422;2023-01-28T04:07:53;36.45;;;22.80;;
28802;SDS011;15949;55.656;37.422;2023-01-28T04:12:59;35.83;;;23.88;;
28802;SDS011;15949;55.656;37.422;2023-01-28T04:18:05;37.55;;;22.90;;
28802;SDS011;15949;55.656;37.422;2023-01-28T04:23:11;37.58;;;24.80;;
28802;SDS011;15949;55.656;37.422;2023-01-28T04:28:16;33.85;;;23.05;;
28802;SDS011;15949;55.656;37.422;2023-01-28T04:33:22;37.67;;;23.13;;
28802;SDS011;15949;55.656;37.422;2023-01-28T04:38:28;33.38;;;21.55;;
28802;SDS011;15949;55.656;37.422;2023-01-28T04:43:33;29.02;;;18.00;;
28802;SDS011;15949;55.656;37.422;2023-01-28T04:48:39;31.58;;;20.70;;
28802;SDS011;15949;55.656;37.422;2023-01-28T04:53:45;30.58;;;19.90;;
28802;SDS011;15949;55.656;37.422;2023-01-28T04:58:50;28.90;;;19.92;;
28802;SDS011;15949;55.656;37.422;2023-01-28T05:03:56;21.23;;;14.00;;
28802;SDS011;15949;55.656;37.422;2023-01-28T05:09:01;23.25;;;14.68;;
28802;SDS011;15949;55.656;37.422;2023-01-28T05:14:07;24.52;;;14.00;;
28802;SDS011;15949;55.656;37.422;2023-01-28T05:19:13;23.05;;;12.73;;
28802;SDS011;15949;55.656;37.422;2023-01-28T05:24:18;17.88;;;11.95;;
28802;SDS011;15949;55.656;37.422;2023-01-28T05:29:25;20.70;;;12.13;;
28802;SDS011;15949;55.656;37.422;2023-01-28T05:34:31;16.08;;;11.23;;
28802;SDS011;15949;55.656;37.422;2023-01-28T05:39:36;19.50;;;12.20;;
28802;SDS011;15949;55.656;37.422;2023-01-28T05:44:42;21.40;;;11.88;;
28802;SDS011;15949;55.656;37.422;2023-01-28T05:49:47;17.40;;;10.77;;
28802;SDS011;15949;55.656;37.422;2023-01-28T05:54:53;18.65;;;11.73;;
28802;SDS011;15949;55.656;37.422;2023-01-28T05:59:58;23.77;;;13.00;;
28802;SDS011;15949;55.656;37.422;2023-01-28T06:05:04;18.70;;;12.15;;
28802;SDS011;15949;55.656;37.422;2023-01-28T06:10:10;21.25;;;11.55;;
28802;SDS011;15949;55.656;37.422;2023-01-28T06:15:16;16.10;;;10.25;;
28802;SDS011;15949;55.656;37.422;2023-01-28T06:20:22;16.33;;;9.88;;
28802;SDS011;15949;55.656;37.422;2023-01-28T06:25:27;15.48;;;10.77;;
28802;SDS011;15949;55.656;37.422;2023-01-28T06:30:33;15.98;;;10.77;;
28802;SDS011;15949;55.656;37.422;2023-01-28T06:35:38;17.15;;;10.55;;
28802;SDS011;15949;55.656;37.422;2023-01-28T06:40:44;18.60;;;11.40;;
28802;SDS011;15949;55.656;37.422;2023-01-28T06:45:56;20.48;;;12.60;;
28802;SDS011;15949;55.656;37.422;2023-01-28T06:51:02;21.25;;;13.38;;
28802;SDS011;15949;55.656;37.422;2023-01-28T06:56:08;36.15;;;23.23;;
28802;SDS011;15949;55.656;37.422;2023-01-28T07:01:13;22.90;;;14.23;;
28802;SDS011;15949;55.656;37.422;2023-01-28T07:06:20;19.40;;;13.57;;
28802;SDS011;15949;55.656;37.422;2023-01-28T07:11:25;21.40;;;13.20;;
28802;SDS011;15949;55.656;37.422;2023-01-28T07:16:31;28.80;;;13.93;;
28802;SDS011;15949;55.656;37.422;2023-01-28T07:21:36;21.02;;;13.48;;
28802;SDS011;15949;55.656;37.422;2023-01-28T07:26:42;21.75;;;13.60;;
28802;SDS011;15949;55.656;37.422;2023-01-28T07:31:48;19.33;;;13.10;;
28802;SDS011;15949;55.656;37.422;2023-01-28T07:36:53;21.58;;;13.32;;
28802;SDS011;15949;55.656;37.422;2023-01-28T07:41:59;26.38;;;13.95;;
28802;SDS011;15949;55.656;37.422;2023-01-28T07:47:05;33.08;;;14.90;;
28802;SDS011;15949;55.656;37.422;2023-01-28T07:52:11;25.33;;;13.60;;
28802;SDS011;15949;55.656;37.422;2023-01-28T07:57:17;28.27;;;14.93;;
28802;SDS011;15949;55.656;37.422;2023-01-28T08:02:27;26.20;;;14.55;;
28802;SDS011;15949;55.656;37.422;2023-01-28T08:07:33;26.27;;;15.73;;
28802;SDS011;15949;55.656;37.422;2023-01-28T08:12:39;26.05;;;16.05;;
28802;SDS011;15949;55.656;37.422;2023-01-28T08:17:45;33.50;;;15.75;;
28802;SDS011;15949;55.656;37.422;2023-01-28T08:22:50;26.13;;;15.77;;
28802;SDS011;15949;55.656;37.422;2023-01-28T08:27:56;31.10;;;16.48;;
28802;SDS011;15949;55.656;37.422;2023-01-28T08:33:01;31.85;;;17.08;;
28802;SDS011;15949;55.656;37.422;2023-01-28T08:38:07;30.33;;;17.35;;
28802;SDS011;15949;55.656;37.422;2023-01-28T08:43:14;32.83;;;18.65;;
28802;SDS011;15949;55.656;37.422;2023-01-28T08:48:20;34.03;;;19.17;;
28802;SDS011;15949;55.656;37.422;2023-01-28T08:53:26;32.63;;;19.13;;
28802;SDS011;15949;55.656;37.422;2023-01-28T08:58:31;32.47;;;20.08;;
28802;SDS011;15949;55.656;37.422;2023-01-28T09:03:37;36.00;;;22.80;;
28802;SDS011;15949;55.656;37.422;2023-01-28T09:08:42;43.08;;;26.00;;
28802;SDS011;15949;55.656;37.422;2023-01-28T09:13:48;48.50;;;30.00;;
28802;SDS011;15949;55.656;37.422;2023-01-28T09:18:53;51.33;;;30.67;;
28802;SDS011;15949;55.656;37.422;2023-01-28T09:23:59;50.00;;;30.05;;
28802;SDS011;15949;55.656;37.422;2023-01-28T09:29:05;47.35;;;28.00;;
28802;SDS011;15949;55.656;37.422;2023-01-28T09:34:10;48.90;;;29.15;;
28802;SDS011;15949;55.656;37.422;2023-01-28T09:39:16;50.60;;;30.02;;
28802;SDS011;15949;55.656;37.422;2023-01-28T09:49:54;54.58;;;28.58;;
28802;SDS011;15949;55.656;37.422;2023-01-28T10:00:16;52.70;;;31.05;;
28802;SDS011;15949;55.656;37.422;2023-01-28T10:05:32;52.10;;;29.35;;
28802;SDS011;15949;55.656;37.422;2023-01-28T10:10:52;49.33;;;29.25;;
28802;SDS011;15949;55.656;37.422;2023-01-28T10:21:36;51.88;;;29.80;;
28802;SDS011;15949;55.656;37.422;2023-01-28T10:26:47;50.85;;;26.23;;
28802;SDS011;15949;55.656;37.422;2023-01-28T10:31:53;50.30;;;27.63;;
28802;SDS011;15949;55.656;37.422;2023-01-28T10:37:00;45.17;;;27.63;;
28802;SDS011;15949;55.656;37.422;2023-01-28T10:42:38;51.60;;;29.15;;
28802;SDS011;15949;55.656;37.422;2023-01-28T10:47:40;53.75;;;28.75;;
28802;SDS011;15949;55.656;37.422;2023-01-28T10:57:58;54.60;;;30.27;;
28802;SDS011;15949;55.656;37.422;2023-01-28T11:03:04;50.08;;;28.73;;
28802;SDS011;15949;55.656;37.422;2023-01-28T11:08:16;55.55;;;30.25;;
28802;SDS011;15949;55.656;37.422;2023-01-28T11:13:24;48.05;;;28.05;;
28802;SDS011;15949;55.656;37.422;2023-01-28T11:18:32;52.17;;;29.58;;
28802;SDS011;15949;55.656;37.422;2023-01-28T11:23:49;51.28;;;28.45;;
28802;SDS011;15949;55.656;37.422;2023-01-28T11:28:57;49.70;;;30.85;;
28802;SDS011;15949;55.656;37.422;2023-01-28T11:34:03;55.40;;;29.98;;
28802;SDS011;15949;55.656;37.422;2023-01-28T11:39:18;53.28;;;29.77;;
28802;SDS011;15949;55.656;37.422;2023-01-28T11:44:26;58.28;;;31.55;;
28802;SDS011;15949;55.656;37.422;2023-01-28T12:17:13;63.20;;;34.88;;
28802;SDS011;15949;55.656;37.422;2023-01-28T12:22:36;62.95;;;33.47;;
28802;SDS011;15949;55.656;37.422;2023-01-28T12:27:50;70.72;;;36.08;;
28802;SDS011;15949;55.656;37.422;2023-01-28T12:38:32;68.88;;;36.80;;
28802;SDS011;15949;55.656;37.422;2023-01-28T12:44:05;65.22;;;36.70;;
28802;SDS011;15949;55.656;37.422;2023-01-28T12:49:49;71.43;;;39.00;;
28802;SDS011;15949;55.656;37.422;2023-01-28T12:55:02;58.35;;;33.85;;
28802;SDS011;15949;55.656;37.422;2023-01-28T13:00:33;60.80;;;33.22;;
28802;SDS011;15949;55.656;37.422;2023-01-28T13:06:05;52.08;;;29.92;;
28802;SDS011;15949;55.656;37.422;2023-01-28T13:11:19;60.10;;;33.78;;
28802;SDS011;15949;55.656;37.422;2023-01-28T13:16:25;58.65;;;34.45;;
28802;SDS011;15949;55.656;37.422;2023-01-28T13:21:34;60.63;;;34.83;;
28802;SDS011;15949;55.656;37.422;2023-01-28T13:26:41;64.68;;;36.47;;
28802;SDS011;15949;55.656;37.422;2023-01-28T13:31:48;73.53;;;38.25;;
28802;SDS011;15949;55.656;37.422;2023-01-28T13:36:56;78.95;;;41.92;;
28802;SDS011;15949;55.656;37.422;2023-01-28T13:42:18;84.35;;;41.75;;
28802;SDS011;15949;55.656;37.422;2023-01-28T13:47:34;71.13;;;37.95;;
28802;SDS011;15949;55.656;37.422;2023-01-28T13:52:43;72.55;;;37.60;;
28802;SDS011;15949;55.656;37.422;2023-01-28T14:19:50;65.28;;;37.00;;
28802;SDS011;15949;55.656;37.422;2023-01-28T14:24:58;158.13;;;84.35;;
28802;SDS011;15949;55.656;37.422;2023-01-28T14:35:31;76.32;;;37.85;;
28802;SDS011;15949;55.656;37.422;2023-01-28T14:40:39;64.43;;;35.20;;
28802;SDS011;15949;55.656;37.422;2023-01-28T15:01:44;71.20;;;37.17;;
28802;SDS011;15949;55.656;37.422;2023-01-28T15:06:50;63.88;;;36.30;;
28802;SDS011;15949;55.656;37.422;2023-01-28T15:11:56;66.03;;;36.38;;
28802;SDS011;15949;55.656;37.422;2023-01-28T15:17:02;64.43;;;36.03;;
28802;SDS011;15949;55.656;37.422;2023-01-28T15:22:12;69.63;;;36.83;;
28802;SDS011;15949;55.656;37.422;2023-01-28T15:27:28;72.05;;;38.88;;
28802;SDS011;15949;55.656;37.422;2023-01-28T15:32:35;70.63;;;38.20;;
28802;SDS011;15949;55.656;37.422;2023-01-28T15:37:40;65.95;;;37.88;;
28802;SDS011;15949;55.656;37.422;2023-01-28T15:42:47;68.22;;;37.20;;
28802;SDS011;15949;55.656;37.422;2023-01-28T15:48:00;68.93;;;36.95;;
28802;SDS011;15949;55.656;37.422;2023-01-28T15:53:10;72.97;;;37.17;;
28802;SDS011;15949;55.656;37.422;2023-01-28T15:58:28;66.38;;;36.88;;
28802;SDS011;15949;55.656;37.422;2023-01-28T16:03:36;70.15;;;37.00;;
28802;SDS011;15949;55.656;37.422;2023-01-28T16:08:45;66.50;;;34.72;;
28802;SDS011;15949;55.656;37.422;2023-01-28T16:13:55;62.17;;;35.15;;
28802;SDS011;15949;55.656;37.422;2023-01-28T16:19:02;70.60;;;35.30;;
28802;SDS011;15949;55.656;37.422;2023-01-28T16:24:44;64.20;;;36.40;;
28802;SDS011;15949;55.656;37.422;2023-01-28T16:34:58;65.95;;;35.00;;
28802;SDS011;15949;55.656;37.422;2023-01-28T16:40:04;67.70;;;36.33;;
28802;SDS011;15949;55.656;37.422;2023-01-28T16:45:13;64.82;;;34.30;;
28802;SDS011;15949;55.656;37.422;2023-01-28T16:50:21;62.70;;;35.38;;
28802;SDS011;15949;55.656;37.422;2023-01-28T16:55:27;63.80;;;35.17;;
28802;SDS011;15949;55.656;37.422;2023-01-28T17:00:33;70.10;;;36.65;;
28802;SDS011;15949;55.656;37.422;2023-01-28T17:05:40;65.47;;;35.65;;
28802;SDS011;15949;55.656;37.422;2023-01-28T17:10:50;63.83;;;36.35;;
28802;SDS011;15949;55.656;37.422;2023-01-28T17:16:00;74.80;;;36.55;;
28802;SDS011;15949;55.656;37.422;2023-01-28T17:21:06;68.43;;;35.45;;
28802;SDS011;15949;55.656;37.422;2023-01-28T17:26:13;60.08;;;34.83;;
28802;SDS011;15949;55.656;37.422;2023-01-28T17:31:20;62.33;;;35.85;;
28802;SDS011;15949;55.656;37.422;2023-01-28T17:36:26;70.43;;;36.97;;
28802;SDS011;15949;55.656;37.422;2023-01-28T17:41:33;68.88;;;36.72;;
28802;SDS011;15949;55.656;37.422;2023-01-28T17:46:39;65.43;;;35.95;;
28802;SDS011;15949;55.656;37.422;2023-01-28T17:51:45;72.18;;;37.35;;
28802;SDS011;15949;55.656;37.422;2023-01-28T17:56:50;71.45;;;37.22;;
28802;SDS011;15949;55.656;37.422;2023-01-28T18:01:56;74.80;;;37.08;;
28802;SDS011;15949;55.656;37.422;2023-01-28T18:07:02;68.88;;;37.85;;
28802;SDS011;15949;55.656;37.422;2023-01-28T18:12:15;69.57;;;37.65;;
28802;SDS011;15949;55.656;37.422;2023-01-28T18:17:20;73.50;;;37.92;;
28802;SDS011;15949;55.656;37.422;2023-01-28T18:22:31;78.05;;;40.65;;
28802;SDS011;15949;55.656;37.422;2023-01-28T18:27:37;81.05;;;43.42;;
28802;SDS011;15949;55.656;37.422;2023-01-28T18:32:43;72.82;;;40.85;;
28802;SDS011;15949;55.656;37.422;2023-01-28T18:37:49;74.07;;;40.13;;
28802;SDS011;15949;55.656;37.422;2023-01-28T18:42:54;79.10;;;41.75;;
28802;SDS011;15949;55.656;37.422;2023-01-28T18:48:00;82.78;;;41.17;;
28802;SDS011;15949;55.656;37.422;2023-01-28T18:53:06;76.55;;;40.45;;
28802;SDS011;15949;55.656;37.422;2023-01-28T18:58:12;72.63;;;40.08;;
28802;SDS011;15949;55.656;37.422;2023-01-28T19:03:18;79.40;;;39.78;;
28802;SDS011;15949;55.656;37.422;2023-01-28T19:08:23;75.50;;;39.22;;
28802;SDS011;15949;55.656;37.422;2023-01-28T19:13:29;77.03;;;40.22;;
28802;SDS011;15949;55.656;37.422;2023-01-28T19:18:35;71.32;;;37.13;;
28802;SDS011;15949;55.656;37.422;2023-01-28T19:23:41;73.10;;;38.30;;
28802;SDS011;15949;55.656;37.422;2023-01-28T19:28:47;67.97;;;36.15;;
28802;SDS011;15949;55.656;37.422;2023-01-28T19:33:54;71.90;;;36.25;;
28802;SDS011;15949;55.656;37.422;2023-01-28T19:39:03;77.10;;;40.70;;
28802;SDS011;15949;55.656;37.422;2023-01-28T19:44:11;72.93;;;37.20;;
28802;SDS011;15949;55.656;37.422;2023-01-28T19:49:17;72.03;;;39.38;;
28802;SDS011;15949;55.656;37.422;2023-01-28T19:54:23;68.80;;;37.00;;
28802;SDS011;15949;55.656;37.422;2023-01-28T19:59:29;77.25;;;38.33;;
28802;SDS011;15949;55.656;37.422;2023-01-28T20:04:34;69.18;;;36.90;;
28802;SDS011;15949;55.656;37.422;2023-01-28T20:09:40;67.57;;;35.70;;
28802;SDS011;15949;55.656;37.422;2023-01-28T20:14:45;69.68;;;36.85;;
28802;SDS011;15949;55.656;37.422;2023-01-28T20:19:51;66.22;;;35.92;;
28802;SDS011;15949;55.656;37.422;2023-01-28T20:24:57;69.90;;;36.25;;
28802;SDS011;15949;55.656;37.422;2023-01-28T20:30:02;67.70;;;37.80;;
28802;SDS011;15949;55.656;37.422;2023-01-28T20:35:08;72.50;;;38.90;;
28802;SDS011;15949;55.656;37.422;2023-01-28T20:40:14;80.35;;;41.38;;
28802;SDS011;15949;55.656;37.422;2023-01-28T20:45:19;76.88;;;39.78;;
28802;SDS011;15949;55.656;37.422;2023-01-28T20:50:25;79.40;;;41.10;;
28802;SDS011;15949;55.656;37.422;2023-01-28T20:55:31;76.28;;;39.63;;
28802;SDS011;15949;55.656;37.422;2023-01-28T21:00:36;83.35;;;42.08;;
28802;SDS011;15949;55.656;37.422;2023-01-28T21:05:45;80.70;;;42.22;;
28802;SDS011;15949;55.656;37.422;2023-01-28T21:10:52;92.88;;;43.65;;
28802;SDS011;15949;55.656;37.422;2023-01-28T21:15:57;89.25;;;44.00;;
28802;SDS011;15949;55.656;37.422;2023-01-28T21:21:04;97.95;;;44.45;;
28802;SDS011;15949;55.656;37.422;2023-01-28T21:26:13;93.28;;;45.33;;
28802;SDS011;15949;55.656;37.422;2023-01-28T21:31:22;103.13;;;46.40;;
28802;SDS011;15949;55.656;37.422;2023-01-28T21:36:29;97.05;;;45.90;;
28802;SDS011;15949;55.656;37.422;2023-01-28T21:41:37;100.30;;;43.40;;
28802;SDS011;15949;55.656;37.422;2023-01-28T21:46:44;96.50;;;44.15;;
28802;SDS011;15949;55.656;37.422;2023-01-28T21:51:50;99.85;;;44.65;;
28802;SDS011;15949;55.656;37.422;2023-01-28T21:56:55;91.55;;;43.80;;
28802;SDS011;15949;55.656;37.422;2023-01-28T22:02:02;97.90;;;45.28;;
28802;SDS011;15949;55.656;37.422;2023-01-28T22:07:12;105.23;;;44.80;;
28802;SDS011;15949;55.656;37.422;2023-01-28T22:12:21;94.32;;;44.42;;
28802;SDS011;15949;55.656;37.422;2023-01-28T22:17:27;90.70;;;42.40;;
28802;SDS011;15949;55.656;37.422;2023-01-28T22:22:32;89.68;;;43.45;;
28802;SDS011;15949;55.656;37.422;2023-01-28T22:27:38;98.60;;;45.63;;
28802;SDS011;15949;55.656;37.422;2023-01-28T22:32:44;94.78;;;43.95;;
28802;SDS011;15949;55.656;37.422;2023-01-28T22:37:49;98.13;;;45.53;;
28802;SDS011;15949;55.656;37.422;2023-01-28T22:42:55;103.07;;;46.72;;
28802;SDS011;15949;55.656;37.422;2023-01-28T22:48:00;104.65;;;45.67;;
28802;SDS011;15949;55.656;37.422;2023-01-28T22:53:06;115.35;;;46.75;;
28802;SDS011;15949;55.656;37.422;2023-01-28T22:58:12;118.55;;;45.45;;
28802;SDS011;15949;55.656;37.422;2023-01-28T23:03:17;119.97;;;41.63;;
28802;SDS011;15949;55.656;37.422;2023-01-28T23:08:23;120.00;;;45.80;;
28802;SDS011;15949;55.656;37.422;2023-01-28T23:13:29;117.95;;;45.25;;
28802;SDS011;15949;55.656;37.422;2023-01-28T23:18:53;127.05;;;47.47;;
28802;SDS011;15949;55.656;37.422;2023-01-28T23:24:18;79.82;;;32.40;;
28802;SDS011;15949;55.656;37.422;2023-01-28T23:29:25;75.38;;;32.38;;
28802;SDS011;15949;55.656;37.422;2023-01-28T23:34:34;60.88;;;24.48;;
28802;SDS011;15949;55.656;37.422;2023-01-28T23:39:44;64.60;;;27.40;;
28802;SDS011;15949;55.656;37.422;2023-01-28T23:44:50;43.60;;;20.08;;
28802;SDS011;15949;55.656;37.422;2023-01-28T23:49:55;40.00;;;18.10;;
28802;SDS011;15949;55.656;37.422;2023-01-28T23:55:01;36.35;;;17.58;;
